UAL2328 KEWR-PHNL
Flight info
| Callsign | UAL2328 |
|---|---|
| Flight time | N/A |
| Altitude | 34000 |
| Route | COATE Q436 RAAKK Q440 SLLAP KP84O BECKY KP90I GEP TIMMR Q146 ZERZO/N0478F360 Q146 CUSDA KU12M BLUNT KS12G OLM J34 HQM C1418 SEDAR 45N130W 43N135W/N0486F380 40N140W 37N145W 33N150W 30N153W ZOULU/N0480F390 ZELDO/N0480F400 |
| Aircraft | B77L/H-SDE1E2E3FGHIJ2J3J4J5M1RWXY/LB1D1 |
Departure
| Time | 2026-05-07 19:22 |
|---|---|
| Airport | Newark Liberty International Airport (KEWR) |
Arrival
| Time | N/A |
|---|---|
| Airport | Daniel K. Inouye International Airport (PHNL) |
| Time | Latitude | Longitude | Altitude | Speed | Heading |
|---|---|---|---|---|---|
| 2026-05-07 19:02 | 40.69395 | -74.17363 | 26 ft | 0 kts | 13° |
| 2026-05-07 19:11 | 40.69394 | -74.17364 | 26 ft | 1 kts | 13° |
| 2026-05-07 19:12 | 40.69371 | -74.17371 | 24 ft | 4 kts | 3° |
| 2026-05-07 19:12 | 40.69354 | -74.17364 | 25 ft | 2 kts | 313° |
| 2026-05-07 19:12 | 40.69337 | -74.17347 | 25 ft | 4 kts | 6° |
| 2026-05-07 19:12 | 40.69329 | -74.17357 | 23 ft | 3 kts | 100° |
| 2026-05-07 19:13 | 40.69333 | -74.17384 | 25 ft | 4 kts | 103° |
| 2026-05-07 19:13 | 40.69336 | -74.17400 | 26 ft | 0 kts | 103° |
| 2026-05-07 19:15 | 40.69333 | -74.17384 | 25 ft | 7 kts | 106° |
| 2026-05-07 19:15 | 40.69295 | -74.17280 | 32 ft | 16 kts | 122° |
| 2026-05-07 19:15 | 40.69244 | -74.17164 | 31 ft | 13 kts | 114° |
| 2026-05-07 19:16 | 40.69190 | -74.17072 | 30 ft | 13 kts | 167° |
| 2026-05-07 19:16 | 40.69103 | -74.17111 | 29 ft | 13 kts | 205° |
| 2026-05-07 19:16 | 40.69020 | -74.17163 | 30 ft | 13 kts | 206° |
| 2026-05-07 19:16 | 40.68937 | -74.17217 | 26 ft | 13 kts | 206° |
| 2026-05-07 19:17 | 40.68855 | -74.17270 | 26 ft | 13 kts | 206° |
| 2026-05-07 19:17 | 40.68771 | -74.17323 | 27 ft | 13 kts | 206° |
| 2026-05-07 19:17 | 40.68687 | -74.17376 | 27 ft | 13 kts | 205° |
| 2026-05-07 19:17 | 40.68604 | -74.17428 | 27 ft | 13 kts | 206° |
| 2026-05-07 19:18 | 40.68517 | -74.17484 | 27 ft | 15 kts | 206° |
| 2026-05-07 19:18 | 40.68422 | -74.17544 | 27 ft | 16 kts | 205° |
| 2026-05-07 19:18 | 40.68321 | -74.17608 | 25 ft | 16 kts | 206° |
| 2026-05-07 19:18 | 40.68221 | -74.17672 | 29 ft | 16 kts | 206° |
| 2026-05-07 19:19 | 40.68121 | -74.17736 | 32 ft | 16 kts | 205° |
| 2026-05-07 19:19 | 40.68054 | -74.17778 | 28 ft | 16 kts | 205° |
| 2026-05-07 19:19 | 40.67954 | -74.17842 | 26 ft | 16 kts | 206° |
| 2026-05-07 19:19 | 40.67853 | -74.17906 | 27 ft | 16 kts | 206° |
| 2026-05-07 19:20 | 40.67753 | -74.17970 | 26 ft | 16 kts | 206° |
| 2026-05-07 19:20 | 40.67653 | -74.18033 | 27 ft | 12 kts | 204° |
| 2026-05-07 19:20 | 40.67578 | -74.18003 | 27 ft | 12 kts | 128° |
| 2026-05-07 19:20 | 40.67585 | -74.17924 | 27 ft | 10 kts | 39° |
| 2026-05-07 19:21 | 40.67744 | -74.17816 | 28 ft | 54 kts | 26° |
| 2026-05-07 19:21 | 40.68272 | -74.17480 | 27 ft | 113 kts | 26° |
| 2026-05-07 19:21 | 40.69135 | -74.16934 | 27 ft | 163 kts | 26° |
| 2026-05-07 19:21 | 40.70294 | -74.16181 | 109 ft | 197 kts | 24° |
| 2026-05-07 19:22 | 40.71484 | -74.15311 | 699 ft | 200 kts | 31° |
| 2026-05-07 19:22 | 40.72575 | -74.14050 | 1011 ft | 215 kts | 43° |
| 2026-05-07 19:22 | 40.73646 | -74.12661 | 1615 ft | 218 kts | 41° |
| 2026-05-07 19:22 | 40.74747 | -74.11293 | 2006 ft | 225 kts | 41° |
| 2026-05-07 19:23 | 40.76034 | -74.10074 | 2151 ft | 232 kts | 15° |
| 2026-05-07 19:23 | 40.77625 | -74.10060 | 2345 ft | 237 kts | 337° |
| 2026-05-07 19:23 | 40.78911 | -74.11412 | 2631 ft | 244 kts | 298° |
| 2026-05-07 19:23 | 40.79410 | -74.13554 | 3011 ft | 248 kts | 282° |
| 2026-05-07 19:24 | 40.79699 | -74.15832 | 3453 ft | 254 kts | 280° |
| 2026-05-07 19:24 | 40.79975 | -74.18164 | 3917 ft | 258 kts | 279° |
| 2026-05-07 19:24 | 40.80239 | -74.20504 | 4480 ft | 258 kts | 279° |
| 2026-05-07 19:24 | 40.80502 | -74.22850 | 4984 ft | 259 kts | 279° |
| 2026-05-07 19:25 | 40.80775 | -74.25197 | 5501 ft | 258 kts | 280° |